Time;durP1;ratioP1;P1;durP2;ratioP2;P2;SDS_P1;SDS_P2;PMS_P1;PMS_P2;Temp;Humidity;BMP_temperature;BMP_pressure;BME280_temperature;BME280_humidity;BME280_pressure;Samples;Min_cycle;Max_cycle;Signal;HPM_P1;HPM_P2
2022/03/30 00:00:31;;;;;;;7.80;2.70;;;7.20;1.00;;;;;;5095956;28;20457;-72
2022/03/30 00:02:58;;;;;;;10.93;3.23;;;7.20;1.00;;;;;;5096716;28;20795;-72
2022/03/30 00:05:24;;;;;;;9.00;3.20;;;7.20;1.00;;;;;;5096364;28;20454;-71
2022/03/30 00:07:52;;;;;;;7.17;2.67;;;7.20;1.00;;;;;;5096549;28;20468;-71
2022/03/30 00:10:19;;;;;;;13.07;3.13;;;7.20;1.00;;;;;;5096450;28;20536;-74
2022/03/30 00:12:45;;;;;;;6.40;2.40;;;7.10;1.00;;;;;;5096080;28;20479;-71
2022/03/30 00:15:13;;;;;;;9.50;2.73;;;7.10;1.00;;;;;;5096109;28;20484;-71
2022/03/30 00:17:40;;;;;;;6.90;2.87;;;7.10;1.00;;;;;;5096669;28;20457;-73
2022/03/30 00:20:08;;;;;;;8.90;2.40;;;7.10;1.00;;;;;;5096002;28;20487;-72
2022/03/30 00:22:35;;;;;;;7.10;2.50;;;7.10;1.00;;;;;;5095914;28;20488;-72
2022/03/30 00:25:01;;;;;;;5.23;2.60;;;7.00;1.00;;;;;;5095697;28;20483;-73
2022/03/30 00:27:28;;;;;;;10.10;2.50;;;7.00;1.00;;;;;;5095464;28;20464;-71
2022/03/30 00:29:55;;;;;;;6.50;2.20;;;6.90;1.00;;;;;;5095116;28;20939;-72
2022/03/30 00:32:23;;;;;;;6.00;2.53;;;6.90;1.00;;;;;;5095310;28;20472;-72
2022/03/30 00:34:49;;;;;;;5.97;2.27;;;6.90;1.00;;;;;;5095478;28;20449;-72
2022/03/30 00:37:16;;;;;;;10.33;2.60;;;6.80;1.00;;;;;;5095387;28;20468;-73
2022/03/30 00:39:43;;;;;;;7.40;2.70;;;6.80;1.00;;;;;;5095503;28;20461;-73
2022/03/30 00:42:17;;;;;;;8.20;2.90;;;6.80;1.00;;;;;;5095262;28;20462;-72
2022/03/30 00:44:44;;;;;;;7.47;2.97;;;6.80;1.00;;;;;;5095505;28;20532;-72
2022/03/30 00:47:17;;;;;;;3.77;2.27;;;6.80;1.00;;;;;;5096328;28;20464;-72
2022/03/30 00:49:49;;;;;;;11.60;2.50;;;6.80;1.00;;;;;;5096821;28;20453;-72
2022/03/30 00:52:16;;;;;;;5.20;2.00;;;6.80;1.00;;;;;;5095491;28;20829;-73
2022/03/30 00:54:49;;;;;;;10.57;2.60;;;6.80;1.00;;;;;;5094941;28;20591;-72
2022/03/30 00:57:18;;;;;;;6.07;2.70;;;6.80;1.00;;;;;;5095176;28;20543;-72
2022/03/30 00:59:45;;;;;;;11.60;3.67;;;6.80;1.00;;;;;;5095061;28;20457;-72
2022/03/30 01:02:12;;;;;;;6.93;2.53;;;6.80;1.00;;;;;;5095238;28;20790;-72
2022/03/30 01:04:39;;;;;;;8.13;2.73;;;6.80;1.00;;;;;;5095107;28;20457;-72
2022/03/30 01:07:07;;;;;;;6.73;2.43;;;6.80;1.00;;;;;;5094942;28;20545;-71
2022/03/30 01:09:34;;;;;;;9.40;2.87;;;6.70;1.00;;;;;;5095037;28;20464;-72
2022/03/30 01:12:01;;;;;;;10.07;3.07;;;6.80;1.00;;;;;;5094984;28;20461;-70
2022/03/30 01:14:28;;;;;;;9.90;3.00;;;6.70;1.00;;;;;;5095117;28;20775;-71
2022/03/30 01:16:54;;;;;;;9.90;5.17;;;6.70;1.00;;;;;;5094844;28;20507;-71
2022/03/30 01:19:21;;;;;;;13.30;7.27;;;6.70;1.00;;;;;;5094528;28;20468;-73
2022/03/30 01:21:49;;;;;;;13.63;6.50;;;6.60;1.00;;;;;;5094946;28;20481;-71
2022/03/30 01:24:17;;;;;;;10.10;4.60;;;6.50;1.00;;;;;;5094767;28;20567;-71
2022/03/30 01:26:43;;;;;;;9.40;4.50;;;6.50;1.00;;;;;;5094754;28;20476;-72
2022/03/30 01:34:40;;;;;;;12.23;4.00;;;6.50;1.00;;;;;;5095221;28;21005;-71
2022/03/30 01:37:09;;;;;;;9.93;3.47;;;6.50;1.00;;;;;;5094413;28;20487;-72
2022/03/30 01:39:36;;;;;;;7.63;3.27;;;6.50;1.00;;;;;;5094939;28;20457;-72
2022/03/30 01:42:03;;;;;;;7.63;2.87;;;6.40;1.00;;;;;;5095121;28;20454;-71
2022/03/30 01:44:30;;;;;;;8.43;2.40;;;6.40;1.00;;;;;;5095749;28;20457;-72
2022/03/30 01:46:57;;;;;;;6.60;2.73;;;6.30;1.00;;;;;;5096685;28;20449;-71
2022/03/30 01:49:24;;;;;;;8.73;2.60;;;6.30;1.00;;;;;;5096459;28;20526;-72
2022/03/30 01:51:55;;;;;;;7.93;2.57;;;6.30;1.00;;;;;;5096617;28;20453;-72
2022/03/30 01:54:25;;;;;;;9.17;2.63;;;6.20;1.00;;;;;;5095162;28;20512;-72
2022/03/30 01:56:55;;;;;;;13.83;3.30;;;6.20;1.00;;;;;;5097007;28;20469;-71
2022/03/30 01:59:23;;;;;;;6.70;2.70;;;6.20;1.00;;;;;;5097273;28;20937;-71
2022/03/30 02:01:50;;;;;;;10.93;2.93;;;6.20;1.00;;;;;;5094313;28;20457;-72
2022/03/30 02:04:17;;;;;;;9.80;3.10;;;6.10;1.00;;;;;;5094576;28;20457;-72
2022/03/30 02:06:44;;;;;;;10.67;3.53;;;6.20;1.00;;;;;;5094432;28;20460;-72
2022/03/30 02:09:12;;;;;;;8.83;3.10;;;6.10;1.00;;;;;;5094762;28;20457;-72
2022/03/30 02:11:40;;;;;;;6.80;3.33;;;6.10;1.00;;;;;;5094334;28;20793;-71
2022/03/30 02:14:07;;;;;;;9.20;3.10;;;6.10;1.00;;;;;;5094164;28;20453;-72
2022/03/30 02:16:35;;;;;;;9.83;3.10;;;6.10;1.00;;;;;;5094348;28;21019;-72
2022/03/30 02:19:02;;;;;;;7.83;3.70;;;6.00;1.00;;;;;;5094320;28;20500;-73
2022/03/30 02:21:29;;;;;;;10.50;3.23;;;6.00;1.00;;;;;;5094206;28;20488;-72
2022/03/30 02:23:56;;;;;;;11.73;2.97;;;6.10;1.00;;;;;;5097194;28;20467;-72
2022/03/30 02:26:23;;;;;;;8.37;2.67;;;6.00;1.00;;;;;;5097575;28;20938;-72
2022/03/30 02:28:52;;;;;;;7.70;3.37;;;6.00;13.10;;;;;;5097949;28;20493;-72
2022/03/30 02:31:19;;;;;;;6.20;2.73;;;6.00;12.10;;;;;;5097630;28;20471;-72
2022/03/30 02:33:45;;;;;;;11.83;3.30;;;6.00;17.50;;;;;;5097690;28;20464;-72
2022/03/30 02:36:13;;;;;;;10.07;3.37;;;6.00;18.00;;;;;;5097502;28;20951;-72
2022/03/30 02:38:40;;;;;;;8.40;3.13;;;6.00;16.20;;;;;;5097466;28;20518;-72
2022/03/30 02:41:08;;;;;;;12.53;3.20;;;6.00;20.20;;;;;;5097538;28;20458;-72
2022/03/30 02:43:36;;;;;;;11.30;2.90;;;6.00;21.80;;;;;;5097309;28;20499;-72
2022/03/30 02:46:04;;;;;;;7.87;3.30;;;6.00;25.90;;;;;;5097257;28;20907;-72
2022/03/30 02:48:33;;;;;;;8.20;3.13;;;5.90;38.50;;;;;;5097496;28;20464;-72
2022/03/30 02:51:03;;;;;;;8.00;4.00;;;5.90;66.00;;;;;;5097433;28;20555;-72
2022/03/30 02:53:30;;;;;;;8.23;3.30;;;5.90;79.70;;;;;;5097250;28;20484;-72
2022/03/30 02:55:58;;;;;;;9.13;3.03;;;5.80;95.50;;;;;;5097408;28;20465;-72
2022/03/30 02:58:25;;;;;;;6.97;3.20;;;5.70;99.90;;;;;;5097550;28;20792;-72
2022/03/30 03:00:53;;;;;;;7.33;3.33;;;5.70;99.90;;;;;;5096853;28;20493;-72
2022/03/30 03:03:22;;;;;;;9.80;3.97;;;5.70;99.90;;;;;;5096999;28;20557;-71
2022/03/30 03:05:48;;;;;;;8.60;3.43;;;5.60;99.90;;;;;;5097331;28;20542;-71
2022/03/30 03:08:15;;;;;;;9.63;3.50;;;5.60;99.90;;;;;;5097283;28;20473;-72
2022/03/30 03:10:45;;;;;;;8.03;3.33;;;5.60;99.90;;;;;;5097393;28;20461;-72
2022/03/30 03:13:13;;;;;;;10.30;3.07;;;5.60;99.90;;;;;;5097243;28;20510;-72
2022/03/30 03:15:41;;;;;;;10.23;2.77;;;5.60;99.90;;;;;;5097284;28;20461;-71
2022/03/30 03:18:08;;;;;;;11.73;3.80;;;5.60;99.90;;;;;;5097057;28;20943;-72
2022/03/30 03:20:37;;;;;;;9.83;3.13;;;5.50;99.90;;;;;;5097182;28;20484;-70
2022/03/30 03:23:04;;;;;;;4.00;2.70;;;5.50;99.90;;;;;;5096570;28;20933;-72
2022/03/30 03:25:33;;;;;;;9.57;3.20;;;5.50;99.90;;;;;;5096717;28;20454;-72
2022/03/30 03:28:01;;;;;;;7.37;2.90;;;5.50;99.90;;;;;;5096694;28;20453;-72
2022/03/30 03:30:28;;;;;;;11.30;3.20;;;5.50;99.90;;;;;;5096820;28;20461;-72
2022/03/30 03:32:56;;;;;;;7.73;3.20;;;5.50;99.90;;;;;;5096643;28;20754;-72
2022/03/30 03:35:23;;;;;;;10.40;3.77;;;5.50;99.90;;;;;;5095251;28;20454;-72
2022/03/30 03:37:51;;;;;;;6.60;3.20;;;5.50;99.90;;;;;;5096602;28;20827;-72
2022/03/30 03:40:18;;;;;;;8.93;3.70;;;5.50;99.90;;;;;;5096444;28;20449;-71
2022/03/30 03:42:45;;;;;;;11.60;3.80;;;5.50;99.90;;;;;;5096789;28;20454;-71
2022/03/30 03:45:12;;;;;;;6.27;3.20;;;5.40;99.90;;;;;;5096694;28;20460;-71
2022/03/30 03:47:41;;;;;;;8.00;3.30;;;5.40;99.90;;;;;;5096683;28;20514;-71
2022/03/30 03:50:09;;;;;;;13.10;3.73;;;5.40;99.90;;;;;;5096611;28;20461;-71
2022/03/30 03:52:36;;;;;;;10.37;3.80;;;5.40;99.90;;;;;;5096556;28;20457;-72
2022/03/30 03:55:05;;;;;;;9.00;3.67;;;5.30;99.90;;;;;;5095917;28;20485;-71
2022/03/30 03:57:35;;;;;;;6.37;3.30;;;5.30;99.90;;;;;;5096237;28;20485;-71
2022/03/30 04:00:04;;;;;;;12.07;4.10;;;5.30;99.90;;;;;;5095929;28;20461;-71
2022/03/30 04:02:32;;;;;;;9.83;3.83;;;5.30;99.90;;;;;;5096296;28;20470;-72
2022/03/30 04:04:59;;;;;;;5.17;4.10;;;5.20;99.90;;;;;;5095827;28;20468;-72
2022/03/30 04:07:26;;;;;;;8.93;3.47;;;5.20;99.90;;;;;;5096121;28;20456;-72
2022/03/30 04:09:52;;;;;;;8.40;3.23;;;5.10;99.90;;;;;;5095784;28;20464;-72
2022/03/30 04:12:20;;;;;;;11.17;4.10;;;5.10;99.90;;;;;;5095963;28;20847;-72
2022/03/30 04:14:47;;;;;;;9.93;3.70;;;5.00;99.90;;;;;;5096332;28;20493;-70
2022/03/30 04:17:14;;;;;;;11.87;3.63;;;5.00;1.00;;;;;;5095989;28;20542;-72
2022/03/30 04:19:41;;;;;;;11.87;3.73;;;5.00;1.00;;;;;;5095730;28;20457;-72
2022/03/30 04:22:08;;;;;;;7.63;3.50;;;4.90;1.00;;;;;;5095500;28;20461;-70
2022/03/30 04:24:35;;;;;;;8.73;3.60;;;4.90;1.00;;;;;;5095764;28;20461;-72
2022/03/30 04:27:02;;;;;;;11.77;4.63;;;4.90;1.00;;;;;;5095688;28;20453;-74
2022/03/30 04:29:30;;;;;;;7.20;3.50;;;4.90;1.00;;;;;;5095816;28;20803;-73
2022/03/30 04:31:56;;;;;;;12.03;4.30;;;4.90;1.00;;;;;;5095559;28;20457;-72
2022/03/30 04:34:24;;;;;;;8.57;4.10;;;4.90;1.00;;;;;;5095297;28;20904;-72
2022/03/30 04:36:50;;;;;;;8.07;3.50;;;4.90;1.00;;;;;;5095377;28;20571;-70
2022/03/30 04:39:17;;;;;;;13.10;3.63;;;4.90;1.00;;;;;;5095062;28;20456;-71
2022/03/30 04:41:44;;;;;;;10.10;4.83;;;4.90;1.00;;;;;;5095361;28;20453;-72
2022/03/30 04:44:11;;;;;;;5.67;3.10;;;4.90;1.00;;;;;;5095090;28;20914;-71
2022/03/30 04:46:39;;;;;;;5.50;3.20;;;5.00;1.00;;;;;;5094645;28;20915;-72
2022/03/30 04:49:06;;;;;;;8.00;3.30;;;5.00;1.00;;;;;;5094910;28;20455;-71
2022/03/30 04:51:33;;;;;;;6.33;3.63;;;5.00;1.00;;;;;;5095250;28;20530;-70
2022/03/30 04:53:59;;;;;;;11.20;4.40;;;5.00;1.00;;;;;;5095278;28;20495;-72
2022/03/30 04:56:26;;;;;;;12.53;7.83;;;5.00;1.00;;;;;;5095056;28;20468;-72
2022/03/30 04:58:53;;;;;;;8.97;3.70;;;5.00;1.00;;;;;;5096087;28;20453;-72
2022/03/30 05:01:20;;;;;;;13.03;4.20;;;5.10;1.00;;;;;;5096306;28;20468;-72
2022/03/30 05:03:50;;;;;;;9.50;3.60;;;5.10;1.00;;;;;;5096939;28;20453;-73
2022/03/30 05:06:17;;;;;;;8.03;3.40;;;5.20;1.00;;;;;;5095696;28;20457;-73
2022/03/30 05:08:44;;;;;;;6.27;3.90;;;5.20;1.00;;;;;;5096162;28;20458;-72
2022/03/30 05:11:11;;;;;;;12.57;3.87;;;5.20;1.00;;;;;;5096972;28;20887;-72
2022/03/30 05:13:37;;;;;;;11.37;3.50;;;5.20;1.00;;;;;;5095701;28;20528;-73
2022/03/30 05:16:05;;;;;;;6.97;3.67;;;5.30;1.00;;;;;;5095020;28;20838;-73
2022/03/30 05:18:34;;;;;;;10.27;3.67;;;5.30;1.00;;;;;;5094917;28;20911;-72
2022/03/30 05:21:02;;;;;;;9.53;3.93;;;5.30;1.00;;;;;;5094586;28;20453;-71
2022/03/30 05:23:29;;;;;;;7.43;3.20;;;5.40;1.00;;;;;;5094846;28;20552;-71
2022/03/30 05:25:57;;;;;;;10.80;3.03;;;5.40;99.90;;;;;;5094583;28;20942;-72
2022/03/30 05:28:23;;;;;;;10.97;3.70;;;5.50;99.90;;;;;;5094957;28;20453;-71
2022/03/30 05:30:50;;;;;;;7.40;3.70;;;5.40;99.90;;;;;;5094508;28;20457;-72
2022/03/30 05:33:17;;;;;;;13.10;4.73;;;5.40;99.90;;;;;;5094789;28;20484;-71
2022/03/30 05:35:43;;;;;;;6.50;3.50;;;5.40;99.90;;;;;;5094624;28;20453;-71
2022/03/30 05:38:11;;;;;;;13.20;3.67;;;5.40;99.90;;;;;;5093564;28;20492;-72
2022/03/30 05:40:38;;;;;;;8.23;3.40;;;5.40;99.90;;;;;;5093673;28;20923;-72
2022/03/30 05:43:05;;;;;;;24.73;3.63;;;5.40;99.90;;;;;;5094196;28;20931;-71
2022/03/30 05:45:32;;;;;;;8.07;3.17;;;5.50;99.90;;;;;;5094626;28;20461;-72
2022/03/30 05:47:59;;;;;;;6.80;4.07;;;5.50;99.90;;;;;;5094850;28;20460;-73
2022/03/30 05:50:26;;;;;;;7.63;3.40;;;5.60;99.90;;;;;;5094445;28;20468;-72
2022/03/30 05:52:53;;;;;;;11.67;4.30;;;5.60;99.90;;;;;;5094001;28;20453;-73
2022/03/30 05:55:21;;;;;;;8.00;4.20;;;5.60;99.90;;;;;;5094490;28;20461;-72
2022/03/30 05:57:48;;;;;;;18.70;9.43;;;5.70;99.90;;;;;;5095953;28;20489;-71
2022/03/30 06:00:15;;;;;;;14.93;3.97;;;5.80;99.90;;;;;;5098336;28;20789;-72
2022/03/30 06:02:42;;;;;;;10.33;5.67;;;5.90;99.90;;;;;;5098759;28;20768;-72
2022/03/30 06:05:09;;;;;;;15.60;5.70;;;5.90;99.90;;;;;;5098658;28;20472;-73
2022/03/30 06:07:36;;;;;;;14.77;3.67;;;6.00;99.90;;;;;;5098258;28;20834;-72
2022/03/30 06:10:04;;;;;;;8.47;3.20;;;6.10;99.90;;;;;;5098054;28;20465;-72
2022/03/30 06:12:32;;;;;;;6.40;2.80;;;6.20;99.90;;;;;;5098462;28;20461;-73
2022/03/30 06:14:59;;;;;;;12.90;3.20;;;6.20;99.90;;;;;;5098069;28;20811;-72
2022/03/30 06:17:26;;;;;;;10.63;3.30;;;6.30;99.90;;;;;;5097824;28;20477;-73
2022/03/30 06:19:54;;;;;;;9.53;3.43;;;6.30;99.90;;;;;;5097662;28;20914;-73
2022/03/30 06:22:23;;;;;;;7.47;2.80;;;6.40;99.90;;;;;;5098139;28;20931;-73
2022/03/30 06:24:50;;;;;;;7.33;3.00;;;6.40;99.90;;;;;;5097506;28;20782;-72
2022/03/30 06:27:18;;;;;;;17.50;3.67;;;6.50;99.90;;;;;;5098443;28;20458;-72
2022/03/30 06:29:46;;;;;;;8.13;2.90;;;6.50;99.90;;;;;;5097364;28;20522;-72
2022/03/30 06:32:12;;;;;;;20.03;3.40;;;6.50;99.90;;;;;;5097687;28;20453;-72
2022/03/30 06:34:40;;;;;;;5.40;2.60;;;6.60;99.90;;;;;;5097736;28;20453;-72
2022/03/30 06:37:07;;;;;;;7.80;2.90;;;6.70;90.30;;;;;;5097694;28;20477;-73
2022/03/30 06:39:34;;;;;;;7.97;2.50;;;6.80;64.30;;;;;;5097963;28;20453;-72
2022/03/30 06:42:01;;;;;;;8.60;2.27;;;6.80;51.00;;;;;;5097260;28;20468;-72
2022/03/30 06:44:28;;;;;;;10.10;5.07;;;6.90;52.10;;;;;;5097941;28;20457;-72
2022/03/30 06:46:56;;;;;;;10.30;4.47;;;7.00;30.00;;;;;;5097887;28;20930;-72
2022/03/30 06:49:22;;;;;;;5.67;3.07;;;7.10;17.80;;;;;;5097422;28;20920;-72
2022/03/30 06:51:49;;;;;;;11.90;2.90;;;7.10;8.30;;;;;;5097791;28;20452;-72
2022/03/30 06:54:16;;;;;;;12.53;5.77;;;7.20;1.00;;;;;;5097416;28;20600;-73
2022/03/30 06:56:43;;;;;;;24.13;12.33;;;7.10;1.00;;;;;;5097207;28;20802;-72
2022/03/30 06:59:12;;;;;;;8.87;4.63;;;7.10;1.00;;;;;;5097366;28;20504;-73
2022/03/30 07:01:38;;;;;;;10.43;3.13;;;7.10;1.00;;;;;;5097333;28;20454;-72
2022/03/30 07:04:07;;;;;;;6.23;2.70;;;7.20;1.00;;;;;;5097365;28;20457;-72
2022/03/30 07:06:33;;;;;;;6.70;2.90;;;7.20;1.00;;;;;;5097238;28;20464;-72
2022/03/30 07:11:45;;;;;;;9.90;3.07;;;7.30;1.00;;;;;;5097211;28;20492;-74
2022/03/30 07:14:12;;;;;;;6.70;2.97;;;7.40;1.00;;;;;;5097200;28;20457;-72
2022/03/30 07:16:39;;;;;;;12.20;3.77;;;7.40;1.00;;;;;;5097502;28;20465;-71
2022/03/30 07:19:07;;;;;;;12.50;6.40;;;7.40;1.00;;;;;;5097031;28;20882;-72
2022/03/30 07:21:33;;;;;;;6.43;3.30;;;7.50;1.00;;;;;;5096536;28;20464;-73
2022/03/30 07:24:00;;;;;;;12.00;4.83;;;7.50;1.00;;;;;;5096651;28;20915;-71
2022/03/30 07:26:27;;;;;;;12.77;3.40;;;7.60;1.00;;;;;;5096656;28;20488;-72
2022/03/30 07:28:54;;;;;;;13.23;3.30;;;7.60;1.00;;;;;;5096471;28;20464;-72
2022/03/30 07:31:20;;;;;;;10.30;3.20;;;7.70;1.00;;;;;;5096861;28;20805;-71
2022/03/30 07:33:47;;;;;;;8.70;3.77;;;7.80;1.00;;;;;;5096988;28;20457;-72
2022/03/30 07:36:15;;;;;;;13.43;3.30;;;7.80;1.00;;;;;;5096743;28;20457;-72
2022/03/30 07:38:42;;;;;;;11.70;4.13;;;7.80;1.00;;;;;;5097088;28;20488;-71
2022/03/30 07:41:08;;;;;;;12.90;4.40;;;7.80;1.00;;;;;;5096370;28;20483;-71
2022/03/30 07:43:35;;;;;;;11.47;4.00;;;7.80;1.00;;;;;;5097060;28;20469;-72
2022/03/30 07:46:02;;;;;;;13.57;4.20;;;7.90;1.00;;;;;;5096796;28;20457;-72
2022/03/30 07:48:28;;;;;;;15.20;5.00;;;8.00;1.00;;;;;;5095981;28;20450;-72
2022/03/30 07:50:55;;;;;;;14.93;4.00;;;8.20;1.00;;;;;;5096092;28;20457;-72
2022/03/30 07:53:23;;;;;;;13.07;5.27;;;8.20;1.00;;;;;;5096222;28;20485;-71
2022/03/30 07:55:53;;;;;;;16.60;3.73;;;8.10;1.00;;;;;;5097038;28;20468;-71
2022/03/30 07:58:20;;;;;;;13.90;4.40;;;8.20;1.00;;;;;;5095985;28;20955;-72
2022/03/30 08:00:47;;;;;;;10.70;4.40;;;8.20;1.00;;;;;;5095667;28;20549;-71
2022/03/30 08:03:14;;;;;;;7.80;3.00;;;8.20;1.00;;;;;;5096473;28;20538;-72
2022/03/30 08:05:41;;;;;;;13.80;4.73;;;8.20;1.00;;;;;;5095731;28;20457;-71
2022/03/30 08:08:08;;;;;;;7.60;3.20;;;8.20;1.00;;;;;;5095759;28;20530;-72
2022/03/30 08:10:37;;;;;;;9.03;4.40;;;8.20;1.00;;;;;;5095900;28;20548;-70
2022/03/30 08:13:04;;;;;;;13.67;3.80;;;8.30;1.00;;;;;;5095844;28;20764;-71
2022/03/30 08:15:32;;;;;;;11.20;3.40;;;8.40;1.00;;;;;;5095906;28;20547;-71
2022/03/30 08:17:59;;;;;;;6.27;3.00;;;8.50;1.00;;;;;;5095926;28;20485;-72
2022/03/30 08:23:11;;;;;;;9.40;3.40;;;8.70;1.00;;;;;;5096245;28;20806;-72
2022/03/30 08:25:39;;;;;;;15.70;3.40;;;8.80;1.00;;;;;;5096942;28;20571;-71
2022/03/30 08:28:07;;;;;;;4.70;2.80;;;8.90;1.00;;;;;;5099145;28;20453;-72
2022/03/30 08:30:34;;;;;;;17.63;7.03;;;9.00;1.00;;;;;;5097157;28;20461;-72
2022/03/30 08:33:02;;;;;;;6.63;2.90;;;9.10;1.00;;;;;;5095665;28;20912;-72
2022/03/30 08:35:29;;;;;;;11.63;3.03;;;9.20;1.00;;;;;;5095693;28;20457;-72
2022/03/30 08:37:56;;;;;;;7.40;2.73;;;9.20;1.00;;;;;;5095499;28;20484;-71
2022/03/30 08:40:23;;;;;;;8.23;3.70;;;9.30;1.00;;;;;;5095328;28;20457;-72
2022/03/30 08:42:52;;;;;;;49.17;19.40;;;9.40;1.00;;;;;;5095126;28;20457;-71
2022/03/30 08:45:30;;;;;;;14.07;5.03;;;9.50;1.00;;;;;;5108106;28;20453;-74
2022/03/30 08:47:57;;;;;;;18.90;7.43;;;9.60;1.00;;;;;;5101657;28;20445;-73
2022/03/30 08:50:24;;;;;;;6.80;2.40;;;9.60;1.00;;;;;;5094463;28;20453;-72
2022/03/30 08:52:55;;;;;;;13.87;5.70;;;9.70;1.00;;;;;;5094655;28;20464;-72
2022/03/30 08:55:21;;;;;;;9.00;4.37;;;9.60;1.00;;;;;;5094566;28;20541;-72
2022/03/30 08:57:51;;;;;;;7.80;2.63;;;9.80;1.00;;;;;;5094561;28;20485;-73
2022/03/30 09:00:20;;;;;;;10.87;3.50;;;10.00;1.00;;;;;;5094287;28;20453;-72
2022/03/30 09:02:53;;;;;;;13.10;4.80;;;10.20;1.00;;;;;;5094195;28;20988;-72
2022/03/30 09:05:22;;;;;;;7.57;3.13;;;10.40;1.00;;;;;;5094263;28;20446;-72
2022/03/30 09:07:51;;;;;;;12.23;2.90;;;10.40;1.00;;;;;;5094217;28;20460;-72
2022/03/30 09:10:20;;;;;;;13.63;3.27;;;10.30;1.00;;;;;;5094022;28;20453;-73
2022/03/30 09:12:48;;;;;;;5.53;1.77;;;10.30;1.00;;;;;;5093662;28;20803;-72
2022/03/30 09:15:15;;;;;;;5.33;1.97;;;10.20;1.00;;;;;;5094025;28;20758;-71
2022/03/30 09:17:47;;;;;;;4.87;2.40;;;10.00;1.00;;;;;;5093775;28;20453;-73
2022/03/30 09:20:17;;;;;;;9.00;2.67;;;10.00;1.00;;;;;;5094412;28;20446;-72
2022/03/30 09:22:45;;;;;;;10.57;2.20;;;10.10;1.00;;;;;;5093872;28;20570;-72
2022/03/30 09:25:14;;;;;;;5.17;1.60;;;10.30;1.00;;;;;;5093867;28;20516;-72
2022/03/30 09:27:42;;;;;;;5.97;2.23;;;10.30;1.00;;;;;;5093825;28;20492;-74
2022/03/30 09:30:11;;;;;;;12.77;2.30;;;10.40;1.00;;;;;;5094064;28;20457;-73
2022/03/30 09:32:40;;;;;;;4.60;2.20;;;10.50;1.00;;;;;;5092635;28;20478;-73
2022/03/30 09:35:20;;;;;;;7.03;2.10;;;10.60;1.00;;;;;;5093760;28;20786;-73
2022/03/30 09:37:58;;;;;;;6.33;1.80;;;10.70;1.00;;;;;;5093529;28;20442;-73
2022/03/30 09:40:34;;;;;;;3.43;1.77;;;10.90;1.00;;;;;;5093596;28;20445;-74
2022/03/30 09:43:10;;;;;;;2.77;1.67;;;11.00;1.00;;;;;;5093517;28;20437;-73
2022/03/30 09:45:37;;;;;;;4.23;2.00;;;11.00;1.00;;;;;;5093901;28;20437;-73
2022/03/30 09:48:11;;;;;;;7.60;1.70;;;11.10;1.00;;;;;;5093395;28;20483;-74
2022/03/30 09:50:48;;;;;;;7.53;1.93;;;11.10;1.00;;;;;;5093313;28;20469;-73
2022/03/30 09:53:16;;;;;;;4.67;1.77;;;11.20;1.00;;;;;;5047300;28;1309752;-73
2022/03/30 09:56:01;;;;;;;5.97;1.83;;;11.40;1.00;;;;;;5094489;28;20207;-73
2022/03/30 09:58:29;;;;;;;9.40;2.80;;;11.30;1.00;;;;;;5094697;28;20461;-73
2022/03/30 10:01:04;;;;;;;5.47;2.77;;;11.30;1.00;;;;;;5094521;28;20465;-73
2022/03/30 10:03:38;;;;;;;2.93;1.40;;;11.20;1.00;;;;;;5094734;28;20463;-72
2022/03/30 10:06:08;;;;;;;6.40;2.10;;;11.30;1.00;;;;;;5094602;28;20793;-73
2022/03/30 10:08:36;;;;;;;9.57;1.90;;;11.40;1.00;;;;;;5094746;28;20956;-73
2022/03/30 10:11:03;;;;;;;4.67;2.37;;;11.40;1.00;;;;;;5094409;28;20477;-73
2022/03/30 10:13:30;;;;;;;6.63;4.40;;;11.30;1.00;;;;;;5094523;28;20536;-73
2022/03/30 10:15:57;;;;;;;4.60;1.60;;;11.30;1.00;;;;;;5094519;28;20462;-74
2022/03/30 10:18:24;;;;;;;11.13;4.10;;;11.30;1.00;;;;;;5094472;28;20572;-74
2022/03/30 10:21:03;;;;;;;4.03;1.67;;;11.30;1.00;;;;;;5096575;28;20834;-72
2022/03/30 10:23:46;;;;;;;4.97;2.00;;;11.40;1.00;;;;;;5095881;28;20438;-73
2022/03/30 10:26:25;;;;;;;5.50;2.70;;;11.50;1.00;;;;;;5094653;28;20472;-73
2022/03/30 10:29:05;;;;;;;3.63;2.20;;;11.60;1.00;;;;;;5094845;28;20463;-73
2022/03/30 10:31:32;;;;;;;4.20;2.10;;;11.70;1.00;;;;;;5094130;28;20442;-73
2022/03/30 10:34:19;;;;;;;7.40;2.53;;;11.60;1.00;;;;;;5094386;28;20464;-73
2022/03/30 10:37:00;;;;;;;6.07;2.50;;;11.60;1.00;;;;;;5093761;28;20477;-72
2022/03/30 10:39:28;;;;;;;2.97;1.80;;;11.80;1.00;;;;;;5094339;28;20465;-72
2022/03/30 10:42:04;;;;;;;4.40;2.07;;;11.90;1.00;;;;;;5094287;28;20476;-73
2022/03/30 10:44:36;;;;;;;10.20;2.53;;;12.00;1.00;;;;;;5099866;28;20433;-73
2022/03/30 10:47:07;;;;;;;7.53;3.50;;;12.10;1.00;;;;;;5099643;28;20541;-73
2022/03/30 10:49:45;;;;;;;7.43;2.53;;;12.20;1.00;;;;;;5098103;28;20446;-74
2022/03/30 10:52:26;;;;;;;8.13;2.17;;;12.30;1.00;;;;;;5096973;28;20457;-73
2022/03/30 10:55:38;;;;;;;6.57;2.53;;;12.40;1.00;;;;;;5096856;28;20488;-73
2022/03/30 10:58:08;;;;;;;10.27;1.97;;;12.50;1.00;;;;;;5097336;28;20514;-73
2022/03/30 11:00:37;;;;;;;10.73;2.40;;;12.60;1.00;;;;;;5097063;28;20453;-73
2022/03/30 11:03:12;;;;;;;5.87;2.20;;;12.60;1.00;;;;;;5103663;28;20487;-73
2022/03/30 11:05:55;;;;;;;10.90;2.50;;;12.60;1.00;;;;;;5104768;28;20452;-74
2022/03/30 11:08:56;;;;;;;3.90;1.77;;;12.70;1.00;;;;;;5100874;28;20451;-73
2022/03/30 11:11:26;;;;;;;7.00;2.10;;;12.80;1.00;;;;;;5096566;28;20456;-74
2022/03/30 11:14:31;;;;;;;6.43;1.80;;;12.90;1.00;;;;;;5096750;28;20865;-73
2022/03/30 11:17:00;;;;;;;6.43;2.33;;;13.00;1.00;;;;;;5096529;28;20441;-73
2022/03/30 11:19:31;;;;;;;9.60;2.13;;;12.90;1.00;;;;;;5096325;28;20512;-73
2022/03/30 11:22:12;;;;;;;2.20;1.70;;;12.80;1.00;;;;;;5096967;28;20445;-74
2022/03/30 11:24:41;;;;;;;6.80;2.27;;;12.50;1.00;;;;;;5096224;28;20461;-74
2022/03/30 11:27:24;;;;;;;4.97;1.90;;;12.40;1.00;;;;;;5096456;28;20797;-73
2022/03/30 11:30:00;;;;;;;3.43;1.70;;;12.50;1.00;;;;;;5096455;28;20437;-74
2022/03/30 11:33:08;;;;;;;8.50;3.00;;;12.70;1.00;;;;;;5096538;28;20468;-73
2022/03/30 11:35:39;;;;;;;3.73;2.27;;;12.60;1.00;;;;;;5096043;28;20445;-72
2022/03/30 11:38:25;;;;;;;4.40;2.37;;;12.40;1.00;;;;;;5095876;28;20448;-73
2022/03/30 11:40:59;;;;;;;5.30;1.90;;;12.50;1.00;;;;;;5095805;28;20903;-72
2022/03/30 11:43:27;;;;;;;4.57;2.50;;;12.40;1.00;;;;;;5096490;28;20437;-73
2022/03/30 11:45:55;;;;;;;4.13;2.50;;;12.20;1.00;;;;;;5096292;28;20457;-72
2022/03/30 11:48:21;;;;;;;3.97;2.17;;;12.10;1.00;;;;;;5096962;28;20472;-72
2022/03/30 11:50:50;;;;;;;6.07;2.43;;;11.90;1.00;;;;;;5096396;28;20460;-72
2022/03/30 11:53:21;;;;;;;4.10;2.60;;;11.90;1.00;;;;;;5097587;28;20503;-73
2022/03/30 11:55:54;;;;;;;7.17;3.07;;;11.90;1.00;;;;;;5094949;28;20523;-72
2022/03/30 11:58:25;;;;;;;5.53;2.70;;;12.00;1.00;;;;;;5095824;28;20453;-73
2022/03/30 12:00:53;;;;;;;7.47;2.97;;;12.00;1.00;;;;;;5097058;28;20465;-74
2022/03/30 12:03:21;;;;;;;10.60;2.97;;;12.00;1.00;;;;;;5096096;28;20465;-75
2022/03/30 12:05:51;;;;;;;5.87;3.20;;;12.00;1.00;;;;;;5095660;28;20498;-72
2022/03/30 12:08:18;;;;;;;7.97;3.50;;;12.10;1.00;;;;;;5097587;28;20503;-73
2022/03/30 12:10:46;;;;;;;4.77;2.93;;;12.10;1.00;;;;;;5095722;28;20492;-72
2022/03/30 12:13:13;;;;;;;8.40;3.00;;;12.20;1.00;;;;;;5095799;28;20468;-73
2022/03/30 12:15:39;;;;;;;12.03;3.20;;;12.20;1.00;;;;;;5095523;28;20453;-73
2022/03/30 12:18:09;;;;;;;6.40;3.20;;;12.20;1.00;;;;;;5095790;28;20461;-72
2022/03/30 12:20:35;;;;;;;5.73;3.47;;;12.20;1.00;;;;;;5095182;28;20486;-73
2022/03/30 12:23:04;;;;;;;5.93;3.30;;;12.00;1.00;;;;;;5095518;28;20560;-73
2022/03/30 12:25:33;;;;;;;7.50;3.20;;;11.90;1.00;;;;;;5095519;28;20461;-74
2022/03/30 12:28:00;;;;;;;4.37;2.83;;;11.70;1.00;;;;;;5095327;28;20477;-73
2022/03/30 12:30:30;;;;;;;4.30;3.60;;;11.60;1.00;;;;;;5095749;28;20475;-73
2022/03/30 12:32:59;;;;;;;7.87;4.00;;;11.40;1.00;;;;;;5095233;28;20515;-73
2022/03/30 12:35:33;;;;;;;6.53;3.30;;;11.30;1.00;;;;;;5095385;28;20453;-73
2022/03/30 12:38:07;;;;;;;9.93;4.13;;;11.20;1.00;;;;;;5096305;28;20525;-73
2022/03/30 12:40:36;;;;;;;4.30;3.47;;;11.10;1.00;;;;;;5095617;28;20571;-73
2022/03/30 12:43:04;;;;;;;5.13;3.93;;;11.00;1.00;;;;;;5095209;28;20450;-72
2022/03/30 12:45:31;;;;;;;10.40;4.03;;;11.00;1.00;;;;;;5095231;28;20457;-73
2022/03/30 12:47:59;;;;;;;13.60;5.07;;;10.90;1.00;;;;;;5094960;28;20457;-73
2022/03/30 12:50:31;;;;;;;19.80;6.50;;;10.90;1.00;;;;;;5095121;28;20523;-73
2022/03/30 12:53:15;;;;;;;14.67;7.20;;;11.00;1.00;;;;;;5095840;28;20528;-74
2022/03/30 12:55:43;;;;;;;14.53;7.90;;;10.90;1.00;;;;;;5094934;28;20813;-73
2022/03/30 12:58:13;;;;;;;6.47;4.47;;;10.90;1.00;;;;;;5095251;28;20543;-73
2022/03/30 13:00:41;;;;;;;6.73;4.20;;;10.90;1.00;;;;;;5094980;28;20465;-73
2022/03/30 13:03:11;;;;;;;7.67;4.00;;;10.90;1.00;;;;;;5094989;28;20552;-74
2022/03/30 13:05:40;;;;;;;4.53;4.13;;;11.00;1.00;;;;;;5094612;28;20462;-74
2022/03/30 13:08:13;;;;;;;7.20;3.70;;;11.10;1.00;;;;;;5095403;28;20526;-72
2022/03/30 13:10:54;;;;;;;7.60;4.60;;;11.10;1.00;;;;;;5095545;28;20442;-73
2022/03/30 13:13:25;;;;;;;10.27;3.77;;;11.00;1.00;;;;;;5096892;28;20524;-74
2022/03/30 13:15:52;;;;;;;5.30;3.37;;;10.90;1.00;;;;;;5095756;28;20441;-73
2022/03/30 13:18:21;;;;;;;5.93;3.43;;;10.80;1.00;;;;;;5094905;28;20454;-72